sensor_id;sensor_type;location;lat;lon;timestamp;temperature;humidity
32476;DHT22;18929;48.008;10.882;2022-08-25T00:01:16;21.80;97.30
32476;DHT22;18929;48.008;10.882;2022-08-25T00:03:44;21.70;97.30
32476;DHT22;18929;48.008;10.882;2022-08-25T00:06:11;21.60;97.40
32476;DHT22;18929;48.008;10.882;2022-08-25T00:08:39;21.60;97.40
32476;DHT22;18929;48.008;10.882;2022-08-25T00:11:08;21.60;97.40
32476;DHT22;18929;48.008;10.882;2022-08-25T00:13:38;21.50;97.50
32476;DHT22;18929;48.008;10.882;2022-08-25T00:16:05;21.50;97.50
32476;DHT22;18929;48.008;10.882;2022-08-25T00:18:33;21.50;97.50
32476;DHT22;18929;48.008;10.882;2022-08-25T00:21:01;21.50;97.90
32476;DHT22;18929;48.008;10.882;2022-08-25T00:23:28;21.30;97.60
32476;DHT22;18929;48.008;10.882;2022-08-25T00:25:55;21.30;97.90
32476;DHT22;18929;48.008;10.882;2022-08-25T00:28:22;21.30;97.70
32476;DHT22;18929;48.008;10.882;2022-08-25T00:30:51;21.40;97.70
32476;DHT22;18929;48.008;10.882;2022-08-25T00:33:18;21.40;97.80
32476;DHT22;18929;48.008;10.882;2022-08-25T00:35:45;21.30;97.80
32476;DHT22;18929;48.008;10.882;2022-08-25T00:38:12;21.30;97.80
32476;DHT22;18929;48.008;10.882;2022-08-25T00:40:42;21.20;97.80
32476;DHT22;18929;48.008;10.882;2022-08-25T00:43:10;21.20;97.80
32476;DHT22;18929;48.008;10.882;2022-08-25T00:45:38;21.20;97.70
32476;DHT22;18929;48.008;10.882;2022-08-25T00:48:06;21.20;97.80
32476;DHT22;18929;48.008;10.882;2022-08-25T00:50:33;21.00;98.00
32476;DHT22;18929;48.008;10.882;2022-08-25T00:53:02;21.00;98.00
32476;DHT22;18929;48.008;10.882;2022-08-25T00:55:35;21.00;98.10
32476;DHT22;18929;48.008;10.882;2022-08-25T00:58:05;21.00;98.10
32476;DHT22;18929;48.008;10.882;2022-08-25T01:00:38;21.00;98.20
32476;DHT22;18929;48.008;10.882;2022-08-25T01:03:07;21.00;98.20
32476;DHT22;18929;48.008;10.882;2022-08-25T01:05:35;21.00;98.10
32476;DHT22;18929;48.008;10.882;2022-08-25T01:08:03;21.00;98.10
32476;DHT22;18929;48.008;10.882;2022-08-25T01:10:33;21.00;98.00
32476;DHT22;18929;48.008;10.882;2022-08-25T01:13:05;20.90;98.00
32476;DHT22;18929;48.008;10.882;2022-08-25T01:15:33;20.90;98.20
32476;DHT22;18929;48.008;10.882;2022-08-25T01:18:01;20.80;98.30
32476;DHT22;18929;48.008;10.882;2022-08-25T01:20:31;20.80;98.30
32476;DHT22;18929;48.008;10.882;2022-08-25T01:23:00;20.80;98.30
32476;DHT22;18929;48.008;10.882;2022-08-25T01:25:38;20.70;98.40
32476;DHT22;18929;48.008;10.882;2022-08-25T01:28:05;20.70;98.30
32476;DHT22;18929;48.008;10.882;2022-08-25T01:30:33;20.70;98.40
32476;DHT22;18929;48.008;10.882;2022-08-25T01:33:02;20.70;98.40
32476;DHT22;18929;48.008;10.882;2022-08-25T01:35:29;20.50;98.50
32476;DHT22;18929;48.008;10.882;2022-08-25T01:38:00;20.50;98.60
32476;DHT22;18929;48.008;10.882;2022-08-25T01:40:27;20.50;98.50
32476;DHT22;18929;48.008;10.882;2022-08-25T01:43:05;20.50;98.50
32476;DHT22;18929;48.008;10.882;2022-08-25T01:45:34;20.50;98.40
32476;DHT22;18929;48.008;10.882;2022-08-25T01:48:02;20.40;98.50
32476;DHT22;18929;48.008;10.882;2022-08-25T01:50:30;20.50;98.50
32476;DHT22;18929;48.008;10.882;2022-08-25T01:53:01;20.40;98.30
32476;DHT22;18929;48.008;10.882;2022-08-25T01:55:30;20.50;98.20
32476;DHT22;18929;48.008;10.882;2022-08-25T01:58:16;20.50;98.70
32476;DHT22;18929;48.008;10.882;2022-08-25T02:00:44;20.30;98.60
32476;DHT22;18929;48.008;10.882;2022-08-25T02:03:11;20.20;98.70
32476;DHT22;18929;48.008;10.882;2022-08-25T02:05:38;20.20;98.70
32476;DHT22;18929;48.008;10.882;2022-08-25T02:08:07;20.20;98.80
32476;DHT22;18929;48.008;10.882;2022-08-25T02:10:34;20.20;98.70
32476;DHT22;18929;48.008;10.882;2022-08-25T02:13:01;20.20;98.70
32476;DHT22;18929;48.008;10.882;2022-08-25T02:15:28;20.00;98.70
32476;DHT22;18929;48.008;10.882;2022-08-25T02:17:55;20.20;98.60
32476;DHT22;18929;48.008;10.882;2022-08-25T02:20:23;20.10;98.80
32476;DHT22;18929;48.008;10.882;2022-08-25T02:22:51;20.10;98.90
32476;DHT22;18929;48.008;10.882;2022-08-25T02:25:20;20.00;99.00
32476;DHT22;18929;48.008;10.882;2022-08-25T02:27:47;20.00;99.10
32476;DHT22;18929;48.008;10.882;2022-08-25T02:30:15;20.00;99.10
32476;DHT22;18929;48.008;10.882;2022-08-25T02:32:42;20.00;99.00
32476;DHT22;18929;48.008;10.882;2022-08-25T02:35:10;20.00;99.00
32476;DHT22;18929;48.008;10.882;2022-08-25T02:37:37;19.90;99.10
32476;DHT22;18929;48.008;10.882;2022-08-25T02:40:05;19.90;99.50
32476;DHT22;18929;48.008;10.882;2022-08-25T02:42:33;19.90;99.20
32476;DHT22;18929;48.008;10.882;2022-08-25T02:45:00;19.90;99.20
32476;DHT22;18929;48.008;10.882;2022-08-25T02:47:27;19.80;99.10
32476;DHT22;18929;48.008;10.882;2022-08-25T02:49:56;19.80;99.10
32476;DHT22;18929;48.008;10.882;2022-08-25T02:52:24;19.80;99.20
32476;DHT22;18929;48.008;10.882;2022-08-25T02:54:51;19.70;99.20
32476;DHT22;18929;48.008;10.882;2022-08-25T02:57:18;19.70;99.30
32476;DHT22;18929;48.008;10.882;2022-08-25T02:59:46;19.70;99.30
32476;DHT22;18929;48.008;10.882;2022-08-25T03:02:14;19.70;99.30
32476;DHT22;18929;48.008;10.882;2022-08-25T03:04:41;19.70;99.20
32476;DHT22;18929;48.008;10.882;2022-08-25T03:07:09;19.70;99.20
32476;DHT22;18929;48.008;10.882;2022-08-25T03:09:37;19.70;99.30
32476;DHT22;18929;48.008;10.882;2022-08-25T03:12:05;19.60;99.30
32476;DHT22;18929;48.008;10.882;2022-08-25T03:14:33;19.50;99.40
32476;DHT22;18929;48.008;10.882;2022-08-25T03:17:02;19.50;99.40
32476;DHT22;18929;48.008;10.882;2022-08-25T03:19:29;19.40;99.40
32476;DHT22;18929;48.008;10.882;2022-08-25T03:21:56;19.50;99.40
32476;DHT22;18929;48.008;10.882;2022-08-25T03:24:25;19.40;99.40
32476;DHT22;18929;48.008;10.882;2022-08-25T03:26:53;19.10;99.20
32476;DHT22;18929;48.008;10.882;2022-08-25T03:29:20;19.40;99.70
32476;DHT22;18929;48.008;10.882;2022-08-25T03:31:47;19.50;99.40
32476;DHT22;18929;48.008;10.882;2022-08-25T03:34:16;19.30;99.20
32476;DHT22;18929;48.008;10.882;2022-08-25T03:36:46;19.50;99.30
32476;DHT22;18929;48.008;10.882;2022-08-25T03:39:14;19.30;99.40
32476;DHT22;18929;48.008;10.882;2022-08-25T03:41:41;19.20;99.60
32476;DHT22;18929;48.008;10.882;2022-08-25T03:44:09;19.20;99.70
32476;DHT22;18929;48.008;10.882;2022-08-25T03:46:38;19.20;99.60
32476;DHT22;18929;48.008;10.882;2022-08-25T03:49:07;19.20;99.60
32476;DHT22;18929;48.008;10.882;2022-08-25T03:51:40;19.20;99.60
32476;DHT22;18929;48.008;10.882;2022-08-25T03:54:09;19.10;99.80
32476;DHT22;18929;48.008;10.882;2022-08-25T03:56:36;19.20;99.60
32476;DHT22;18929;48.008;10.882;2022-08-25T03:59:03;19.10;99.70
32476;DHT22;18929;48.008;10.882;2022-08-25T04:01:30;19.10;99.70
32476;DHT22;18929;48.008;10.882;2022-08-25T04:03:57;19.00;99.80
32476;DHT22;18929;48.008;10.882;2022-08-25T04:06:24;19.10;99.70
32476;DHT22;18929;48.008;10.882;2022-08-25T04:08:53;19.00;99.90
32476;DHT22;18929;48.008;10.882;2022-08-25T04:11:21;19.00;99.80
32476;DHT22;18929;48.008;10.882;2022-08-25T04:13:49;19.00;99.90
32476;DHT22;18929;48.008;10.882;2022-08-25T04:16:18;19.00;99.70
32476;DHT22;18929;48.008;10.882;2022-08-25T04:18:46;19.00;99.80
32476;DHT22;18929;48.008;10.882;2022-08-25T04:21:14;18.90;99.90
32476;DHT22;18929;48.008;10.882;2022-08-25T04:23:44;18.90;99.90
32476;DHT22;18929;48.008;10.882;2022-08-25T04:26:15;18.90;99.90
32476;DHT22;18929;48.008;10.882;2022-08-25T04:28:43;18.90;99.90
32476;DHT22;18929;48.008;10.882;2022-08-25T04:31:12;18.90;99.90
32476;DHT22;18929;48.008;10.882;2022-08-25T04:33:40;18.50;99.90
32476;DHT22;18929;48.008;10.882;2022-08-25T04:36:09;18.30;99.90
32476;DHT22;18929;48.008;10.882;2022-08-25T04:38:37;18.20;99.90
32476;DHT22;18929;48.008;10.882;2022-08-25T04:41:06;18.40;99.90
32476;DHT22;18929;48.008;10.882;2022-08-25T04:43:35;18.70;99.90
32476;DHT22;18929;48.008;10.882;2022-08-25T04:46:05;18.60;99.90
32476;DHT22;18929;48.008;10.882;2022-08-25T04:48:33;18.60;99.90
32476;DHT22;18929;48.008;10.882;2022-08-25T04:51:03;18.80;99.90
32476;DHT22;18929;48.008;10.882;2022-08-25T04:53:31;18.80;99.90
32476;DHT22;18929;48.008;10.882;2022-08-25T04:55:58;18.80;99.90
32476;DHT22;18929;48.008;10.882;2022-08-25T04:58:25;18.70;99.90
32476;DHT22;18929;48.008;10.882;2022-08-25T05:01:00;18.60;99.90
32476;DHT22;18929;48.008;10.882;2022-08-25T05:03:27;18.60;99.90
32476;DHT22;18929;48.008;10.882;2022-08-25T05:05:55;18.70;99.90
32476;DHT22;18929;48.008;10.882;2022-08-25T05:08:22;18.60;99.90
32476;DHT22;18929;48.008;10.882;2022-08-25T05:10:49;18.80;99.90
32476;DHT22;18929;48.008;10.882;2022-08-25T05:13:19;18.70;99.90
32476;DHT22;18929;48.008;10.882;2022-08-25T05:15:51;18.80;99.90
32476;DHT22;18929;48.008;10.882;2022-08-25T05:18:22;18.70;99.90
32476;DHT22;18929;48.008;10.882;2022-08-25T05:20:49;18.00;99.90
32476;DHT22;18929;48.008;10.882;2022-08-25T05:23:18;18.10;99.90
32476;DHT22;18929;48.008;10.882;2022-08-25T05:25:46;18.40;99.90
32476;DHT22;18929;48.008;10.882;2022-08-25T05:28:13;18.60;99.90
32476;DHT22;18929;48.008;10.882;2022-08-25T05:30:41;18.60;99.90
32476;DHT22;18929;48.008;10.882;2022-08-25T05:33:09;18.60;99.90
32476;DHT22;18929;48.008;10.882;2022-08-25T05:35:38;18.40;99.90
32476;DHT22;18929;48.008;10.882;2022-08-25T05:38:06;18.40;99.90
32476;DHT22;18929;48.008;10.882;2022-08-25T05:40:33;18.50;99.90
32476;DHT22;18929;48.008;10.882;2022-08-25T05:43:00;18.20;99.90
32476;DHT22;18929;48.008;10.882;2022-08-25T05:45:27;18.40;99.90
32476;DHT22;18929;48.008;10.882;2022-08-25T05:47:54;18.60;99.90
32476;DHT22;18929;48.008;10.882;2022-08-25T05:50:22;18.60;99.90
32476;DHT22;18929;48.008;10.882;2022-08-25T05:52:50;18.60;99.90
32476;DHT22;18929;48.008;10.882;2022-08-25T05:55:17;18.10;99.90
32476;DHT22;18929;48.008;10.882;2022-08-25T05:57:45;18.00;99.90
32476;DHT22;18929;48.008;10.882;2022-08-25T06:00:13;17.70;99.90
32476;DHT22;18929;48.008;10.882;2022-08-25T06:02:40;18.10;99.90
32476;DHT22;18929;48.008;10.882;2022-08-25T06:05:06;18.30;99.90
32476;DHT22;18929;48.008;10.882;2022-08-25T06:07:33;18.50;99.90
32476;DHT22;18929;48.008;10.882;2022-08-25T06:10:02;18.40;99.90
32476;DHT22;18929;48.008;10.882;2022-08-25T06:12:31;18.30;99.90
32476;DHT22;18929;48.008;10.882;2022-08-25T06:15:00;18.60;99.90
32476;DHT22;18929;48.008;10.882;2022-08-25T06:17:28;18.70;99.90
32476;DHT22;18929;48.008;10.882;2022-08-25T06:19:55;18.70;99.90
32476;DHT22;18929;48.008;10.882;2022-08-25T06:22:22;18.70;99.90
32476;DHT22;18929;48.008;10.882;2022-08-25T06:24:50;18.50;99.90
32476;DHT22;18929;48.008;10.882;2022-08-25T06:27:19;18.50;99.90
32476;DHT22;18929;48.008;10.882;2022-08-25T06:29:46;18.50;99.90
32476;DHT22;18929;48.008;10.882;2022-08-25T06:32:13;18.40;99.90
32476;DHT22;18929;48.008;10.882;2022-08-25T06:34:40;18.50;99.90
32476;DHT22;18929;48.008;10.882;2022-08-25T06:37:07;18.60;99.90
32476;DHT22;18929;48.008;10.882;2022-08-25T06:39:34;18.70;99.90
32476;DHT22;18929;48.008;10.882;2022-08-25T06:42:01;18.80;99.90
32476;DHT22;18929;48.008;10.882;2022-08-25T06:44:30;18.80;99.90
32476;DHT22;18929;48.008;10.882;2022-08-25T06:46:57;18.80;99.90
32476;DHT22;18929;48.008;10.882;2022-08-25T06:49:24;18.70;99.90
32476;DHT22;18929;48.008;10.882;2022-08-25T06:51:53;18.50;99.90
32476;DHT22;18929;48.008;10.882;2022-08-25T06:54:20;18.40;99.90
32476;DHT22;18929;48.008;10.882;2022-08-25T06:56:47;18.60;99.90
32476;DHT22;18929;48.008;10.882;2022-08-25T06:59:14;18.60;99.90
32476;DHT22;18929;48.008;10.882;2022-08-25T07:01:43;18.50;99.90
32476;DHT22;18929;48.008;10.882;2022-08-25T07:04:10;18.40;99.90
32476;DHT22;18929;48.008;10.882;2022-08-25T07:06:37;18.30;99.90
32476;DHT22;18929;48.008;10.882;2022-08-25T07:09:09;18.40;99.90
32476;DHT22;18929;48.008;10.882;2022-08-25T07:11:37;18.40;99.90
32476;DHT22;18929;48.008;10.882;2022-08-25T07:14:05;18.30;99.90
32476;DHT22;18929;48.008;10.882;2022-08-25T07:16:33;18.30;99.90
32476;DHT22;18929;48.008;10.882;2022-08-25T07:19:02;18.50;99.90
32476;DHT22;18929;48.008;10.882;2022-08-25T07:21:32;18.50;99.90
32476;DHT22;18929;48.008;10.882;2022-08-25T07:24:00;18.40;99.90
32476;DHT22;18929;48.008;10.882;2022-08-25T07:26:30;18.30;99.90
32476;DHT22;18929;48.008;10.882;2022-08-25T07:29:00;18.30;99.90
32476;DHT22;18929;48.008;10.882;2022-08-25T07:31:27;18.30;99.90
32476;DHT22;18929;48.008;10.882;2022-08-25T07:33:54;18.30;99.90
32476;DHT22;18929;48.008;10.882;2022-08-25T07:36:40;18.40;99.90
32476;DHT22;18929;48.008;10.882;2022-08-25T07:39:08;18.50;99.90
32476;DHT22;18929;48.008;10.882;2022-08-25T07:41:36;18.70;99.90
32476;DHT22;18929;48.008;10.882;2022-08-25T07:44:04;18.80;99.90
32476;DHT22;18929;48.008;10.882;2022-08-25T07:46:31;18.50;99.90
32476;DHT22;18929;48.008;10.882;2022-08-25T07:48:58;18.40;99.90
32476;DHT22;18929;48.008;10.882;2022-08-25T07:51:26;18.50;99.90
32476;DHT22;18929;48.008;10.882;2022-08-25T07:53:54;18.80;99.90
32476;DHT22;18929;48.008;10.882;2022-08-25T07:56:21;18.80;99.90
32476;DHT22;18929;48.008;10.882;2022-08-25T07:58:48;18.90;99.90
32476;DHT22;18929;48.008;10.882;2022-08-25T08:01:17;19.10;99.90
32476;DHT22;18929;48.008;10.882;2022-08-25T08:03:45;19.00;99.90
32476;DHT22;18929;48.008;10.882;2022-08-25T08:06:17;19.00;99.90
32476;DHT22;18929;48.008;10.882;2022-08-25T08:08:45;18.60;99.90
32476;DHT22;18929;48.008;10.882;2022-08-25T08:11:16;18.80;99.90
32476;DHT22;18929;48.008;10.882;2022-08-25T08:13:43;18.90;99.90
32476;DHT22;18929;48.008;10.882;2022-08-25T08:16:12;19.20;99.90
32476;DHT22;18929;48.008;10.882;2022-08-25T08:18:40;19.50;99.90
32476;DHT22;18929;48.008;10.882;2022-08-25T08:21:11;19.20;99.90
32476;DHT22;18929;48.008;10.882;2022-08-25T08:23:38;19.40;99.90
32476;DHT22;18929;48.008;10.882;2022-08-25T08:26:05;19.30;99.90
32476;DHT22;18929;48.008;10.882;2022-08-25T08:28:34;19.40;99.90
32476;DHT22;18929;48.008;10.882;2022-08-25T08:31:01;19.50;99.90
32476;DHT22;18929;48.008;10.882;2022-08-25T08:33:28;19.60;99.90
32476;DHT22;18929;48.008;10.882;2022-08-25T08:35:57;19.60;99.90
32476;DHT22;18929;48.008;10.882;2022-08-25T08:38:24;19.40;99.90
32476;DHT22;18929;48.008;10.882;2022-08-25T08:40:59;19.60;99.90
32476;DHT22;18929;48.008;10.882;2022-08-25T08:43:48;19.70;99.90
32476;DHT22;18929;48.008;10.882;2022-08-25T08:46:20;19.70;99.90
32476;DHT22;18929;48.008;10.882;2022-08-25T08:48:57;19.70;99.90
32476;DHT22;18929;48.008;10.882;2022-08-25T08:51:31;19.80;99.90
32476;DHT22;18929;48.008;10.882;2022-08-25T08:54:08;19.50;99.90
32476;DHT22;18929;48.008;10.882;2022-08-25T08:56:41;19.10;99.90
32476;DHT22;18929;48.008;10.882;2022-08-25T08:59:14;19.20;99.90
32476;DHT22;18929;48.008;10.882;2022-08-25T09:01:46;19.40;99.90
32476;DHT22;18929;48.008;10.882;2022-08-25T09:04:19;19.90;99.90
32476;DHT22;18929;48.008;10.882;2022-08-25T09:06:49;20.10;99.90
32476;DHT22;18929;48.008;10.882;2022-08-25T09:09:32;20.30;99.90
32476;DHT22;18929;48.008;10.882;2022-08-25T09:12:06;20.60;99.90
32476;DHT22;18929;48.008;10.882;2022-08-25T09:14:47;21.00;99.90
32476;DHT22;18929;48.008;10.882;2022-08-25T09:17:20;21.20;99.90
32476;DHT22;18929;48.008;10.882;2022-08-25T09:20:11;20.70;99.90
32476;DHT22;18929;48.008;10.882;2022-08-25T09:22:49;21.20;99.90
32476;DHT22;18929;48.008;10.882;2022-08-25T09:25:21;21.50;99.90
32476;DHT22;18929;48.008;10.882;2022-08-25T09:27:55;21.60;99.90
32476;DHT22;18929;48.008;10.882;2022-08-25T09:30:27;21.80;99.90
32476;DHT22;18929;48.008;10.882;2022-08-25T09:32:56;21.90;99.90
32476;DHT22;18929;48.008;10.882;2022-08-25T09:35:31;21.80;99.90
32476;DHT22;18929;48.008;10.882;2022-08-25T09:38:00;21.90;99.90
32476;DHT22;18929;48.008;10.882;2022-08-25T09:40:29;21.40;99.90
32476;DHT22;18929;48.008;10.882;2022-08-25T09:42:59;21.30;99.90
32476;DHT22;18929;48.008;10.882;2022-08-25T09:45:35;21.60;99.90
32476;DHT22;18929;48.008;10.882;2022-08-25T09:48:20;21.50;99.90
32476;DHT22;18929;48.008;10.882;2022-08-25T09:50:49;21.70;99.90
32476;DHT22;18929;48.008;10.882;2022-08-25T09:53:17;21.40;99.90
32476;DHT22;18929;48.008;10.882;2022-08-25T09:55:47;21.60;99.90
32476;DHT22;18929;48.008;10.882;2022-08-25T09:58:21;21.20;99.90
32476;DHT22;18929;48.008;10.882;2022-08-25T10:01:02;21.90;99.90
32476;DHT22;18929;48.008;10.882;2022-08-25T10:03:30;22.20;99.90
32476;DHT22;18929;48.008;10.882;2022-08-25T10:06:04;22.20;99.90
32476;DHT22;18929;48.008;10.882;2022-08-25T10:08:35;22.10;99.90
32476;DHT22;18929;48.008;10.882;2022-08-25T10:11:05;22.30;99.90
32476;DHT22;18929;48.008;10.882;2022-08-25T10:13:37;22.30;99.90
32476;DHT22;18929;48.008;10.882;2022-08-25T10:16:10;22.10;99.90
32476;DHT22;18929;48.008;10.882;2022-08-25T10:18:37;22.20;99.90
32476;DHT22;18929;48.008;10.882;2022-08-25T10:21:15;22.50;99.90
32476;DHT22;18929;48.008;10.882;2022-08-25T10:23:47;22.20;99.90
32476;DHT22;18929;48.008;10.882;2022-08-25T10:26:22;22.60;99.90
32476;DHT22;18929;48.008;10.882;2022-08-25T10:29:05;22.80;99.90
32476;DHT22;18929;48.008;10.882;2022-08-25T10:31:43;22.60;99.90
32476;DHT22;18929;48.008;10.882;2022-08-25T10:34:24;22.70;99.90
32476;DHT22;18929;48.008;10.882;2022-08-25T10:37:01;22.70;99.90
32476;DHT22;18929;48.008;10.882;2022-08-25T10:39:38;22.70;99.90
32476;DHT22;18929;48.008;10.882;2022-08-25T10:42:21;22.40;99.90
32476;DHT22;18929;48.008;10.882;2022-08-25T10:45:01;22.80;99.90
32476;DHT22;18929;48.008;10.882;2022-08-25T10:48:05;22.60;99.90
32476;DHT22;18929;48.008;10.882;2022-08-25T10:50:41;22.90;99.90
32476;DHT22;18929;48.008;10.882;2022-08-25T10:53:27;23.00;99.90
32476;DHT22;18929;48.008;10.882;2022-08-25T10:56:02;22.20;99.90
32476;DHT22;18929;48.008;10.882;2022-08-25T11:01:29;23.30;99.90
32476;DHT22;18929;48.008;10.882;2022-08-25T11:04:02;23.00;99.90
32476;DHT22;18929;48.008;10.882;2022-08-25T11:06:37;23.70;99.90
32476;DHT22;18929;48.008;10.882;2022-08-25T11:09:08;23.60;99.90
32476;DHT22;18929;48.008;10.882;2022-08-25T11:11:40;23.70;99.90
32476;DHT22;18929;48.008;10.882;2022-08-25T11:14:16;23.60;99.90
32476;DHT22;18929;48.008;10.882;2022-08-25T11:16:50;22.60;99.90
32476;DHT22;18929;48.008;10.882;2022-08-25T11:19:22;23.00;99.90
32476;DHT22;18929;48.008;10.882;2022-08-25T11:21:59;23.20;99.90
32476;DHT22;18929;48.008;10.882;2022-08-25T11:24:48;22.80;99.90
32476;DHT22;18929;48.008;10.882;2022-08-25T11:27:21;23.70;99.90
32476;DHT22;18929;48.008;10.882;2022-08-25T11:29:57;24.10;99.10
32476;DHT22;18929;48.008;10.882;2022-08-25T11:32:24;24.20;99.90
32476;DHT22;18929;48.008;10.882;2022-08-25T11:34:53;24.10;98.70
32476;DHT22;18929;48.008;10.882;2022-08-25T11:37:22;24.50;99.40
32476;DHT22;18929;48.008;10.882;2022-08-25T11:43:00;23.20;99.90
32476;DHT22;18929;48.008;10.882;2022-08-25T11:45:50;23.40;99.90
32476;DHT22;18929;48.008;10.882;2022-08-25T11:48:31;24.50;98.80
32476;DHT22;18929;48.008;10.882;2022-08-25T11:51:04;24.10;99.00
32476;DHT22;18929;48.008;10.882;2022-08-25T11:53:34;24.20;98.70
32476;DHT22;18929;48.008;10.882;2022-08-25T11:56:04;24.60;97.60
32476;DHT22;18929;48.008;10.882;2022-08-25T11:58:40;24.20;98.30
32476;DHT22;18929;48.008;10.882;2022-08-25T12:01:11;23.50;99.20
32476;DHT22;18929;48.008;10.882;2022-08-25T12:04:09;23.40;99.90
32476;DHT22;18929;48.008;10.882;2022-08-25T12:09:33;24.00;99.10
32476;DHT22;18929;48.008;10.882;2022-08-25T12:12:28;24.90;97.60
32476;DHT22;18929;48.008;10.882;2022-08-25T12:15:12;25.30;96.90
32476;DHT22;18929;48.008;10.882;2022-08-25T12:17:40;24.50;97.40
32476;DHT22;18929;48.008;10.882;2022-08-25T12:20:07;24.90;95.00
32476;DHT22;18929;48.008;10.882;2022-08-25T12:22:53;25.10;95.20
32476;DHT22;18929;48.008;10.882;2022-08-25T12:25:49;25.40;94.80
32476;DHT22;18929;48.008;10.882;2022-08-25T12:28:38;25.30;94.80
32476;DHT22;18929;48.008;10.882;2022-08-25T12:31:20;25.50;95.60
32476;DHT22;18929;48.008;10.882;2022-08-25T12:33:57;25.20;96.70
32476;DHT22;18929;48.008;10.882;2022-08-25T12:36:30;25.20;96.80
32476;DHT22;18929;48.008;10.882;2022-08-25T12:39:13;25.20;96.90
32476;DHT22;18929;48.008;10.882;2022-08-25T12:41:54;24.90;97.20
32476;DHT22;18929;48.008;10.882;2022-08-25T12:44:44;25.20;96.10
32476;DHT22;18929;48.008;10.882;2022-08-25T12:47:26;25.50;96.50
32476;DHT22;18929;48.008;10.882;2022-08-25T12:50:26;25.60;95.90
32476;DHT22;18929;48.008;10.882;2022-08-25T12:52:54;25.20;96.00
32476;DHT22;18929;48.008;10.882;2022-08-25T12:55:26;24.90;96.90
32476;DHT22;18929;48.008;10.882;2022-08-25T12:57:56;25.10;96.90
32476;DHT22;18929;48.008;10.882;2022-08-25T13:00:27;25.30;96.40
32476;DHT22;18929;48.008;10.882;2022-08-25T13:03:14;25.80;95.00
32476;DHT22;18929;48.008;10.882;2022-08-25T13:11:44;25.90;94.30
32476;DHT22;18929;48.008;10.882;2022-08-25T13:14:17;25.80;95.50
32476;DHT22;18929;48.008;10.882;2022-08-25T13:16:52;24.80;96.70
32476;DHT22;18929;48.008;10.882;2022-08-25T13:19:20;25.70;94.50
32476;DHT22;18929;48.008;10.882;2022-08-25T13:21:48;25.90;94.60
32476;DHT22;18929;48.008;10.882;2022-08-25T13:24:20;26.10;93.60
32476;DHT22;18929;48.008;10.882;2022-08-25T13:26:52;26.60;93.00
32476;DHT22;18929;48.008;10.882;2022-08-25T13:29:24;26.20;91.60
32476;DHT22;18929;48.008;10.882;2022-08-25T13:31:53;26.50;92.10
32476;DHT22;18929;48.008;10.882;2022-08-25T13:34:23;26.50;90.70
32476;DHT22;18929;48.008;10.882;2022-08-25T13:36:51;26.40;91.80
32476;DHT22;18929;48.008;10.882;2022-08-25T13:39:36;26.50;92.10
32476;DHT22;18929;48.008;10.882;2022-08-25T13:42:10;26.10;91.90
32476;DHT22;18929;48.008;10.882;2022-08-25T13:44:41;26.50;91.40
32476;DHT22;18929;48.008;10.882;2022-08-25T13:47:10;26.90;91.10
32476;DHT22;18929;48.008;10.882;2022-08-25T13:49:39;26.80;91.40
32476;DHT22;18929;48.008;10.882;2022-08-25T13:52:06;26.80;91.70
32476;DHT22;18929;48.008;10.882;2022-08-25T13:54:38;26.50;90.70
32476;DHT22;18929;48.008;10.882;2022-08-25T13:57:12;26.70;93.20
32476;DHT22;18929;48.008;10.882;2022-08-25T13:59:42;26.30;92.30
32476;DHT22;18929;48.008;10.882;2022-08-25T14:02:11;26.40;92.20
32476;DHT22;18929;48.008;10.882;2022-08-25T14:04:47;26.90;92.70
32476;DHT22;18929;48.008;10.882;2022-08-25T14:07:28;26.50;91.20
32476;DHT22;18929;48.008;10.882;2022-08-25T14:09:59;26.70;91.90
32476;DHT22;18929;48.008;10.882;2022-08-25T14:12:32;26.50;85.70
32476;DHT22;18929;48.008;10.882;2022-08-25T14:15:10;26.60;91.90
32476;DHT22;18929;48.008;10.882;2022-08-25T14:17:40;26.40;91.60
32476;DHT22;18929;48.008;10.882;2022-08-25T14:20:18;26.70;87.50
32476;DHT22;18929;48.008;10.882;2022-08-25T14:22:48;26.90;90.00
32476;DHT22;18929;48.008;10.882;2022-08-25T14:25:16;26.70;83.00
32476;DHT22;18929;48.008;10.882;2022-08-25T14:27:43;26.70;91.10
32476;DHT22;18929;48.008;10.882;2022-08-25T14:30:13;27.00;82.50
32476;DHT22;18929;48.008;10.882;2022-08-25T14:32:40;27.20;82.00
32476;DHT22;18929;48.008;10.882;2022-08-25T14:35:08;27.60;83.50
32476;DHT22;18929;48.008;10.882;2022-08-25T14:37:35;27.60;84.10
32476;DHT22;18929;48.008;10.882;2022-08-25T14:40:03;27.90;88.10
32476;DHT22;18929;48.008;10.882;2022-08-25T14:42:31;27.70;87.40
32476;DHT22;18929;48.008;10.882;2022-08-25T14:44:58;27.90;88.60
32476;DHT22;18929;48.008;10.882;2022-08-25T14:47:26;28.00;86.40
32476;DHT22;18929;48.008;10.882;2022-08-25T14:49:53;28.20;88.10
32476;DHT22;18929;48.008;10.882;2022-08-25T14:52:24;28.00;87.10
32476;DHT22;18929;48.008;10.882;2022-08-25T14:54:52;28.00;87.40
32476;DHT22;18929;48.008;10.882;2022-08-25T14:57:21;27.80;82.80
32476;DHT22;18929;48.008;10.882;2022-08-25T14:59:48;27.90;79.40
32476;DHT22;18929;48.008;10.882;2022-08-25T15:02:17;27.70;79.10
32476;DHT22;18929;48.008;10.882;2022-08-25T15:04:49;27.90;79.10
32476;DHT22;18929;48.008;10.882;2022-08-25T15:07:16;27.80;79.00
32476;DHT22;18929;48.008;10.882;2022-08-25T15:10:01;27.90;87.50
32476;DHT22;18929;48.008;10.882;2022-08-25T15:12:28;28.10;86.60
32476;DHT22;18929;48.008;10.882;2022-08-25T15:14:56;28.30;86.30
32476;DHT22;18929;48.008;10.882;2022-08-25T15:17:23;28.50;81.70
32476;DHT22;18929;48.008;10.882;2022-08-25T15:19:52;28.80;84.80
32476;DHT22;18929;48.008;10.882;2022-08-25T15:22:19;28.60;84.20
32476;DHT22;18929;48.008;10.882;2022-08-25T15:24:46;28.70;83.20
32476;DHT22;18929;48.008;10.882;2022-08-25T15:27:13;28.70;82.50
32476;DHT22;18929;48.008;10.882;2022-08-25T15:29:40;28.40;74.30
32476;DHT22;18929;48.008;10.882;2022-08-25T15:32:07;28.30;83.00
32476;DHT22;18929;48.008;10.882;2022-08-25T15:34:35;28.50;83.30
32476;DHT22;18929;48.008;10.882;2022-08-25T15:37:08;28.80;78.20
32476;DHT22;18929;48.008;10.882;2022-08-25T15:39:36;28.90;82.30
32476;DHT22;18929;48.008;10.882;2022-08-25T15:42:04;28.80;74.00
32476;DHT22;18929;48.008;10.882;2022-08-25T15:44:31;28.80;76.20
32476;DHT22;18929;48.008;10.882;2022-08-25T15:46:58;29.00;82.00
32476;DHT22;18929;48.008;10.882;2022-08-25T15:49:26;28.80;77.80
32476;DHT22;18929;48.008;10.882;2022-08-25T15:51:53;29.00;79.70